createdAt,value
2022-10-11T00:02:16.748Z,82.10
2022-10-11T00:05:18.660Z,80.70
2022-10-11T00:08:20.522Z,78.40
2022-10-11T00:11:22.376Z,80.70
2022-10-11T00:14:25.035Z,80.20
2022-10-11T00:17:26.864Z,77.80
2022-10-11T00:20:28.784Z,77.70
2022-10-11T00:23:30.691Z,76.80
2022-10-11T00:26:32.573Z,77.90
2022-10-11T00:29:34.495Z,77.80
2022-10-11T00:32:36.932Z,77.20
2022-10-11T00:35:41.619Z,78.10
2022-10-11T00:38:44.407Z,79.10
2022-10-11T00:41:47.868Z,79.90
2022-10-11T00:44:50.217Z,82.70
2022-10-11T00:47:55.480Z,80.60
2022-10-11T00:50:58.272Z,82.20
2022-10-11T00:54:00.130Z,83.00
2022-10-11T00:57:04.931Z,83.10
2022-10-11T01:00:07.927Z,82.10
2022-10-11T01:03:09.776Z,79.00
2022-10-11T01:06:11.568Z,81.60
2022-10-11T01:09:13.433Z,82.40
2022-10-11T01:12:18.305Z,80.40
2022-10-11T01:15:40.072Z,80.50
2022-10-11T01:18:44.957Z,81.60
2022-10-11T01:22:18.943Z,81.40
2022-10-11T01:25:27.035Z,83.60
2022-10-11T01:28:51.607Z,82.10
2022-10-11T01:32:11.533Z,82.20
2022-10-11T01:35:26.367Z,83.00
2022-10-11T01:38:43.111Z,84.00
2022-10-11T01:41:47.340Z,82.80
2022-10-11T01:44:49.384Z,82.70
2022-10-11T01:48:02.407Z,82.60
2022-10-11T01:51:04.199Z,90.00
2022-10-11T01:54:56.494Z,91.80
2022-10-11T01:58:02.156Z,90.10
2022-10-11T02:01:08.530Z,90.80
2022-10-11T02:04:14.616Z,90.70
2022-10-11T02:07:38.792Z,91.50
2022-10-11T02:10:54.518Z,92.20
2022-10-11T02:14:02.101Z,91.30
2022-10-11T02:17:07.887Z,91.90
2022-10-11T02:20:13.203Z,87.00
2022-10-11T02:23:25.855Z,90.30
2022-10-11T02:26:29.194Z,90.80
2022-10-11T02:29:32.847Z,90.40
2022-10-11T02:32:34.757Z,88.60
2022-10-11T02:35:39.198Z,89.50
2022-10-11T02:38:45.037Z,91.30
2022-10-11T02:41:46.862Z,90.40
2022-10-11T02:44:53.687Z,90.20
2022-10-11T02:47:55.513Z,91.60
2022-10-11T02:50:57.812Z,92.70
2022-10-11T02:53:59.774Z,91.50
2022-10-11T02:57:01.596Z,90.60
2022-10-11T03:00:04.434Z,92.70
2022-10-11T03:03:06.208Z,96.30
2022-10-11T03:06:08.328Z,96.90
2022-10-11T03:09:10.524Z,92.80
2022-10-11T03:12:12.359Z,93.50
2022-10-11T03:15:14.156Z,94.50
2022-10-11T03:18:16.141Z,95.10
2022-10-11T03:21:18.520Z,93.60
2022-10-11T03:24:20.376Z,94.30
2022-10-11T03:27:22.156Z,94.70
2022-10-11T03:30:24.091Z,94.70
2022-10-11T03:33:25.945Z,96.20
2022-10-11T03:36:27.756Z,96.00
2022-10-11T03:39:29.566Z,95.50
2022-10-11T03:42:31.381Z,95.70
2022-10-11T03:45:33.206Z,96.80
2022-10-11T03:48:35.064Z,97.10
2022-10-11T03:51:36.876Z,96.20
2022-10-11T03:54:38.755Z,95.50
2022-10-11T03:57:40.609Z,96.90
2022-10-11T04:00:42.500Z,96.90
2022-10-11T04:03:44.351Z,96.90
2022-10-11T04:06:46.247Z,94.40
2022-10-11T04:09:48.466Z,95.50
2022-10-11T04:12:50.300Z,94.10
2022-10-11T04:15:52.116Z,95.90
2022-10-11T04:18:54.024Z,93.50
2022-10-11T04:21:55.877Z,95.70
2022-10-11T04:24:58.163Z,97.40
2022-10-11T04:27:59.992Z,98.20
2022-10-11T04:31:03.145Z,97.30
2022-10-11T04:34:04.931Z,97.00
2022-10-11T04:37:06.809Z,98.40
2022-10-11T04:40:09.230Z,97.60
2022-10-11T04:43:11.088Z,97.30
2022-10-11T04:46:12.939Z,96.80
2022-10-11T04:49:14.928Z,98.50
2022-10-11T04:52:16.727Z,99.00
2022-10-11T04:55:18.625Z,99.90
2022-10-11T04:58:20.440Z,99.90
2022-10-11T05:01:22.223Z,99.90
2022-10-11T05:04:24.048Z,99.90
2022-10-11T05:07:25.857Z,99.90
2022-10-11T05:10:27.667Z,98.60
2022-10-11T05:13:29.559Z,97.90
2022-10-11T05:16:31.419Z,99.90
2022-10-11T05:19:33.267Z,98.80
2022-10-11T05:22:35.190Z,98.80
2022-10-11T05:25:37.117Z,99.90
2022-10-11T05:28:38.999Z,99.80
2022-10-11T05:31:40.848Z,99.90
2022-10-11T05:34:42.658Z,99.90
2022-10-11T05:37:44.531Z,99.90
2022-10-11T05:40:46.366Z,99.90
2022-10-11T05:43:48.174Z,99.40
2022-10-11T05:46:50.031Z,99.90
2022-10-11T05:49:51.898Z,99.90
2022-10-11T05:52:53.921Z,99.90
2022-10-11T05:55:55.777Z,99.90
2022-10-11T05:59:02.043Z,99.90
2022-10-11T06:02:04.265Z,99.90
2022-10-11T06:05:06.339Z,99.90
2022-10-11T06:08:08.822Z,99.90
2022-10-11T06:11:22.096Z,99.90
2022-10-11T06:14:24.251Z,99.90
2022-10-11T06:17:26.109Z,99.90
2022-10-11T06:20:27.998Z,99.90
2022-10-11T06:23:29.943Z,99.90
2022-10-11T06:26:31.812Z,99.90
2022-10-11T06:29:34.175Z,99.90
2022-10-11T06:32:36.012Z,99.90
2022-10-11T06:35:37.844Z,99.90
2022-10-11T06:38:44.793Z,99.90
2022-10-11T06:41:47.193Z,99.90
2022-10-11T06:44:49.041Z,99.90
2022-10-11T06:47:50.884Z,99.90
2022-10-11T06:51:00.098Z,99.90
2022-10-11T06:54:02.330Z,99.30
2022-10-11T06:57:04.132Z,99.90
2022-10-11T07:00:10.330Z,99.90
2022-10-11T07:03:14.400Z,99.90
2022-10-11T07:06:23.117Z,99.90
2022-10-11T07:09:25.002Z,99.90
2022-10-11T07:12:26.835Z,99.90
2022-10-11T07:15:28.676Z,99.90
2022-10-11T07:18:30.619Z,99.90
2022-10-11T07:21:33.278Z,99.90
2022-10-11T07:24:35.116Z,99.90
2022-10-11T07:27:37.000Z,99.00
2022-10-11T07:30:40.066Z,97.50
2022-10-11T07:33:41.898Z,96.50
2022-10-11T07:36:43.726Z,96.50
2022-10-11T07:39:45.761Z,96.20
2022-10-11T07:42:47.611Z,95.70
2022-10-11T07:45:53.066Z,95.50
2022-10-11T07:48:54.896Z,94.10
2022-10-11T07:51:56.782Z,95.10
2022-10-11T07:54:58.609Z,94.70
2022-10-11T07:58:00.434Z,94.50
2022-10-11T08:01:02.313Z,94.40
2022-10-11T08:04:04.312Z,91.70
2022-10-11T08:07:06.301Z,90.30
2022-10-11T08:10:08.830Z,70.80
2022-10-11T08:13:10.687Z,66.10
2022-10-11T08:16:13.120Z,58.10
2022-10-11T08:19:15.090Z,53.40
2022-10-11T08:22:16.827Z,49.10
2022-10-11T08:25:18.690Z,21.90
2022-10-11T08:28:21.019Z,46.50
2022-10-11T08:31:22.971Z,20.40
2022-10-11T08:34:24.784Z,42.20
2022-10-11T08:37:26.678Z,38.50
2022-10-11T08:40:32.796Z,36.00
2022-10-11T08:43:46.471Z,33.50
2022-10-11T08:46:50.803Z,21.60
2022-10-11T08:49:52.733Z,26.20
2022-10-11T08:53:06.604Z,25.20
2022-10-11T08:56:09.253Z,23.10
2022-10-11T08:59:11.434Z,23.50
2022-10-11T09:02:22.298Z,21.00
2022-10-11T09:05:25.554Z,11.10
2022-10-11T09:08:59.260Z,18.90
2022-10-11T09:12:13.893Z,9.90
2022-10-11T09:15:27.715Z,11.60
2022-10-11T09:18:42.890Z,13.60
2022-10-11T09:22:00.954Z,9.00
2022-10-11T09:25:21.183Z,8.70
2022-10-11T09:29:20.496Z,8.80
2022-10-11T09:32:22.432Z,6.00
2022-10-11T09:35:24.493Z,12.30
2022-10-11T09:38:43.733Z,12.10
2022-10-11T09:42:08.130Z,7.50
2022-10-11T09:45:28.211Z,7.60
2022-10-11T09:48:38.763Z,4.90
2022-10-11T09:51:42.950Z,6.40
2022-10-11T09:54:52.794Z,7.00
2022-10-11T09:57:54.935Z,5.70
2022-10-11T10:01:07.982Z,7.10
2022-10-11T10:04:12.258Z,2.30
2022-10-11T10:07:15.145Z,5.10
2022-10-11T10:10:30.149Z,6.10
2022-10-11T10:13:45.721Z,2.60
2022-10-11T10:16:47.549Z,2.90
2022-10-11T10:19:53.487Z,5.80
2022-10-11T10:22:55.328Z,6.10
2022-10-11T10:26:20.214Z,5.60
2022-10-11T10:29:22.021Z,2.40
2022-10-11T10:32:27.982Z,8.50
2022-10-11T10:35:30.097Z,8.50
2022-10-11T10:38:42.100Z,9.50
2022-10-11T10:41:43.955Z,9.10
2022-10-11T10:44:53.154Z,10.80
2022-10-11T10:48:16.580Z,10.70
2022-10-11T10:51:40.377Z,10.70
2022-10-11T10:54:54.101Z,12.10
2022-10-11T10:58:06.433Z,11.10
2022-10-11T11:01:13.780Z,12.20
2022-10-11T11:04:27.721Z,11.90
2022-10-11T11:07:35.292Z,12.20
2022-10-11T11:10:39.557Z,12.00
2022-10-11T11:13:43.468Z,11.20
2022-10-11T11:17:08.020Z,11.80
2022-10-11T11:20:31.884Z,13.20
2022-10-11T11:23:45.894Z,13.00
2022-10-11T11:27:01.079Z,12.70
2022-10-11T11:30:02.881Z,13.00
2022-10-11T11:33:32.568Z,12.70
2022-10-11T11:36:42.357Z,12.70
2022-10-11T11:39:47.697Z,13.80
2022-10-11T11:42:54.570Z,15.20
2022-10-11T11:46:18.827Z,12.20
2022-10-11T11:49:24.800Z,15.10
2022-10-11T11:52:37.226Z,13.60
2022-10-11T11:55:43.260Z,13.80
2022-10-11T11:58:49.781Z,13.20
2022-10-11T12:02:29.034Z,11.50
2022-10-11T12:05:33.172Z,10.60
2022-10-11T12:08:35.067Z,10.60
2022-10-11T12:11:36.895Z,11.20
2022-10-11T12:14:39.966Z,10.80
2022-10-11T12:17:57.421Z,11.80
2022-10-11T12:21:07.486Z,13.30
2022-10-11T12:24:19.627Z,11.00
2022-10-11T12:27:37.564Z,11.70
2022-10-11T12:30:48.353Z,10.60
2022-10-11T12:34:03.115Z,10.70
2022-10-11T12:37:20.342Z,12.00
2022-10-11T12:40:41.886Z,10.00
2022-10-11T12:43:50.003Z,10.00
2022-10-11T12:46:53.653Z,9.40
2022-10-11T12:50:04.061Z,10.50
2022-10-11T12:53:27.381Z,8.40
2022-10-11T12:56:38.200Z,8.40
2022-10-11T12:59:46.215Z,10.70
2022-10-11T13:02:48.387Z,9.90
2022-10-11T13:06:04.720Z,10.40
2022-10-11T13:09:09.611Z,8.20
2022-10-11T13:12:21.602Z,8.20
2022-10-11T13:15:24.472Z,7.00
2022-10-11T13:18:29.120Z,8.30
2022-10-11T13:21:33.188Z,9.20
2022-10-11T13:24:38.941Z,8.30
2022-10-11T13:27:40.773Z,9.00
2022-10-11T13:30:43.956Z,9.10
2022-10-11T13:33:45.856Z,9.20
2022-10-11T13:36:47.599Z,8.30
2022-10-11T13:39:51.188Z,7.50
2022-10-11T13:42:53.478Z,8.80
2022-10-11T13:45:56.003Z,8.90
2022-10-11T13:49:06.696Z,8.40
2022-10-11T13:52:24.333Z,4.90
2022-10-11T13:55:47.783Z,8.20
2022-10-11T13:58:49.594Z,8.40
2022-10-11T14:02:00.203Z,8.80
2022-10-11T14:05:02.071Z,8.30
2022-10-11T14:08:19.795Z,8.30
2022-10-11T14:11:36.117Z,8.20
2022-10-11T14:14:41.796Z,7.20
2022-10-11T14:17:45.034Z,9.10
2022-10-11T14:20:46.891Z,8.00
2022-10-11T14:24:00.214Z,8.80
2022-10-11T14:27:03.945Z,7.50
2022-10-11T14:30:27.463Z,7.40
2022-10-11T14:33:29.688Z,9.50
2022-10-11T14:36:31.706Z,8.50
2022-10-11T14:39:33.562Z,8.50
2022-10-11T14:42:35.417Z,7.40
2022-10-11T14:45:37.264Z,10.50
2022-10-11T14:48:55.900Z,9.00
2022-10-11T14:51:58.450Z,9.10
2022-10-11T14:55:01.024Z,8.70
2022-10-11T14:58:03.240Z,7.10
2022-10-11T15:01:05.242Z,9.60
2022-10-11T15:04:07.069Z,10.10
2022-10-11T15:07:11.867Z,7.90
2022-10-11T15:10:19.744Z,9.10
2022-10-11T15:13:22.638Z,8.80
2022-10-11T15:16:25.390Z,10.70
2022-10-11T15:19:27.278Z,10.30
2022-10-11T15:22:29.376Z,10.70
2022-10-11T15:25:31.276Z,10.60
2022-10-11T15:28:33.327Z,11.70
2022-10-11T15:31:35.196Z,12.20
2022-10-11T15:34:37.074Z,11.90
2022-10-11T15:37:39.200Z,12.90
2022-10-11T15:40:41.024Z,12.70
2022-10-11T15:43:43.588Z,11.80
2022-10-11T15:46:46.065Z,12.50
2022-10-11T15:49:47.941Z,12.80
2022-10-11T15:52:52.933Z,13.50
2022-10-11T15:55:56.423Z,14.80
2022-10-11T15:58:58.533Z,14.50
2022-10-11T16:02:00.470Z,14.70
2022-10-11T16:05:02.392Z,14.70
2022-10-11T16:08:04.332Z,15.20
2022-10-11T16:11:06.670Z,17.50
2022-10-11T16:14:08.495Z,17.90
2022-10-11T16:17:10.397Z,23.40
2022-10-11T16:20:12.361Z,19.30
2022-10-11T16:23:14.409Z,19.30
2022-10-11T16:26:16.637Z,18.10
2022-10-11T16:29:18.602Z,17.90
2022-10-11T16:32:20.585Z,18.10
2022-10-11T16:35:22.444Z,19.80
2022-10-11T16:38:24.312Z,21.00
2022-10-11T16:41:26.120Z,23.10
2022-10-11T16:44:28.040Z,23.20
2022-10-11T16:47:29.942Z,24.30
2022-10-11T16:50:35.550Z,26.00
2022-10-11T16:53:40.305Z,28.10
2022-10-11T16:56:42.157Z,29.60
2022-10-11T16:59:44.052Z,27.80
2022-10-11T17:02:45.929Z,29.80
2022-10-11T17:05:47.768Z,28.40
2022-10-11T17:08:49.600Z,28.30
2022-10-11T17:11:51.526Z,28.70
2022-10-11T17:14:53.568Z,29.30
2022-10-11T17:17:55.833Z,30.00
2022-10-11T17:21:07.907Z,29.70
2022-10-11T17:24:09.952Z,31.20
2022-10-11T17:27:11.844Z,31.10
2022-10-11T17:30:13.838Z,31.70
2022-10-11T17:33:15.679Z,31.60
2022-10-11T17:36:43.879Z,33.00
2022-10-11T17:39:45.801Z,39.50
2022-10-11T17:42:47.800Z,37.40
2022-10-11T17:45:56.610Z,36.60
2022-10-11T17:48:59.344Z,39.30
2022-10-11T17:52:01.188Z,38.80
2022-10-11T17:55:03.080Z,38.50
2022-10-11T17:58:04.935Z,40.10
2022-10-11T18:01:15.229Z,41.10
2022-10-11T18:04:18.304Z,42.20
2022-10-11T18:07:20.113Z,42.30
2022-10-11T18:10:22.052Z,43.00
2022-10-11T18:13:23.970Z,46.20
2022-10-11T18:16:27.138Z,48.30
2022-10-11T18:19:29.071Z,47.90
2022-10-11T18:22:30.926Z,49.10
2022-10-11T18:25:35.815Z,54.90
2022-10-11T18:28:37.758Z,57.00
2022-10-11T18:31:39.751Z,56.30
2022-10-11T18:34:41.690Z,57.00
2022-10-11T18:37:43.568Z,56.30
2022-10-11T18:40:47.278Z,57.20
2022-10-11T18:43:52.481Z,58.00
2022-10-11T18:46:54.449Z,57.50
2022-10-11T18:49:56.632Z,59.10
2022-10-11T18:52:58.549Z,61.50
2022-10-11T18:56:01.488Z,62.60
2022-10-11T18:59:04.216Z,60.80
2022-10-11T19:02:06.004Z,59.50
2022-10-11T19:05:08.210Z,65.40
2022-10-11T19:08:10.036Z,58.70
2022-10-11T19:11:12.977Z,58.70
2022-10-11T19:14:16.019Z,57.40
2022-10-11T19:17:22.537Z,57.60
2022-10-11T19:20:24.429Z,56.60
2022-10-11T19:23:26.268Z,58.60
2022-10-11T19:26:35.529Z,59.70
2022-10-11T19:29:37.891Z,61.40
2022-10-11T19:32:39.709Z,60.80
2022-10-11T19:35:42.390Z,61.70
2022-10-11T19:38:45.455Z,60.60
2022-10-11T19:41:47.352Z,65.30
2022-10-11T19:44:49.173Z,62.20
2022-10-11T19:47:51.031Z,62.50
2022-10-11T19:50:52.883Z,63.50
2022-10-11T19:53:59.076Z,65.00
2022-10-11T19:57:00.888Z,61.70
2022-10-11T20:00:02.736Z,59.70
2022-10-11T20:03:06.379Z,59.90
2022-10-11T20:06:08.367Z,59.90
2022-10-11T20:09:28.571Z,60.50
2022-10-11T20:12:32.151Z,60.20
2022-10-11T20:15:37.588Z,61.80
2022-10-11T20:18:39.576Z,62.50
2022-10-11T20:21:42.008Z,63.80
2022-10-11T20:24:43.812Z,66.90
2022-10-11T20:27:46.442Z,64.20
2022-10-11T20:30:48.231Z,65.90
2022-10-11T20:33:50.139Z,64.80
2022-10-11T20:36:52.283Z,65.10
2022-10-11T20:39:54.131Z,66.00
2022-10-11T20:42:55.985Z,67.30
2022-10-11T20:46:01.887Z,67.50
2022-10-11T20:49:05.725Z,66.40
2022-10-11T20:52:07.591Z,64.40
2022-10-11T20:55:09.499Z,64.80
2022-10-11T20:58:11.315Z,64.70
2022-10-11T21:01:15.223Z,64.10
2022-10-11T21:04:18.802Z,66.20
2022-10-11T21:07:20.684Z,67.20
2022-10-11T21:10:22.572Z,67.80
2022-10-11T21:13:24.431Z,67.30
2022-10-11T21:16:26.999Z,67.20
2022-10-11T21:19:28.836Z,67.30
2022-10-11T21:22:31.794Z,66.50
2022-10-11T21:25:34.315Z,66.60
2022-10-11T21:28:36.377Z,65.20
2022-10-11T21:31:38.258Z,66.40
2022-10-11T21:34:40.474Z,67.30
2022-10-11T21:37:42.462Z,67.30
2022-10-11T21:40:44.303Z,68.30
2022-10-11T21:43:46.471Z,71.40
2022-10-11T21:47:05.906Z,70.80
2022-10-11T21:50:08.966Z,71.70
2022-10-11T21:53:10.793Z,70.70
2022-10-11T21:56:12.647Z,70.50
2022-10-11T21:59:14.630Z,70.30
2022-10-11T22:02:16.584Z,70.00
2022-10-11T22:05:18.800Z,71.40
2022-10-11T22:08:20.735Z,70.90
2022-10-11T22:11:22.638Z,73.60
2022-10-11T22:14:24.651Z,73.50
2022-10-11T22:17:26.472Z,74.80
2022-10-11T22:20:28.303Z,73.30
2022-10-11T22:23:30.127Z,72.70
2022-10-11T22:26:34.182Z,73.80
2022-10-11T22:29:35.970Z,74.20
2022-10-11T22:32:38.071Z,75.60
2022-10-11T22:35:40.035Z,75.60
2022-10-11T22:38:42.296Z,75.50
2022-10-11T22:41:44.107Z,74.80
2022-10-11T22:44:45.969Z,75.40
2022-10-11T22:47:47.780Z,76.80
2022-10-11T22:50:49.644Z,77.50
2022-10-11T22:53:51.470Z,77.50
2022-10-11T22:56:53.310Z,78.70
2022-10-11T22:59:55.132Z,79.00
2022-10-11T23:02:57.003Z,78.90
2022-10-11T23:05:58.836Z,77.80
2022-10-11T23:09:00.749Z,78.10
2022-10-11T23:12:02.551Z,78.00
2022-10-11T23:15:04.676Z,78.40
2022-10-11T23:18:06.492Z,79.30
2022-10-11T23:21:08.395Z,80.50
2022-10-11T23:24:10.681Z,78.40
2022-10-11T23:27:12.517Z,79.50
2022-10-11T23:30:14.421Z,82.50
2022-10-11T23:33:16.268Z,82.40
2022-10-11T23:36:19.685Z,83.60
2022-10-11T23:39:21.593Z,83.30
2022-10-11T23:42:23.384Z,83.00
2022-10-11T23:45:25.268Z,82.20
2022-10-11T23:48:27.065Z,82.80
2022-10-11T23:51:28.917Z,82.00
2022-10-11T23:54:30.790Z,81.90
2022-10-11T23:57:32.626Z,83.60
